Time;durP1;ratioP1;P1;durP2;ratioP2;P2;SDS_P1;SDS_P2;PMS_P1;PMS_P2;Temp;Humidity;BMP_temperature;BMP_pressure;BME280_temperature;BME280_humidity;BME280_pressure;Samples;Min_cycle;Max_cycle;Signal;HPM_P1;HPM_P2
2022/06/23 00:01:34;;;;;;;21.52;12.98;;;20.70;86.80;;;19.51;100.00;95730.09;4947115;28;20034;-67
2022/06/23 00:03:59;;;;;;;19.20;13.50;;;20.70;87.00;;;19.48;100.00;95739.44;4945622;28;20051;-67
2022/06/23 00:06:48;;;;;;;15.68;11.55;;;20.70;87.00;;;19.49;100.00;95735.69;4944495;28;20127;-67
2022/06/23 00:09:53;;;;;;;18.50;12.65;;;20.70;87.00;;;19.47;100.00;95740.50;4959759;28;20034;-66
2022/06/23 00:12:18;;;;;;;15.00;12.00;;;20.70;87.00;;;19.45;100.00;95747.09;4919509;28;20035;-67
2022/06/23 00:14:45;;;;;;;21.90;13.43;;;20.60;87.20;;;19.44;100.00;95740.97;4950318;28;20097;-67
2022/06/23 00:17:35;;;;;;;18.73;13.02;;;20.70;87.00;;;19.44;100.00;95743.63;4926084;28;20038;-67
2022/06/23 00:20:17;;;;;;;22.05;14.23;;;20.70;86.80;;;19.40;100.00;95745.19;4941131;28;20066;-66
2022/06/23 00:22:47;;;;;;;18.00;13.50;;;20.60;86.90;;;19.38;100.00;95754.50;4938300;28;20121;-66
2022/06/23 00:25:47;;;;;;;16.27;13.50;;;20.60;87.00;;;19.38;100.00;95755.31;4943492;28;20534;-66
2022/06/23 00:28:45;;;;;;;16.70;13.63;;;20.60;87.10;;;19.37;100.00;95759.03;4921806;28;20413;-66
2022/06/23 00:31:27;;;;;;;22.02;13.30;;;20.60;87.30;;;19.36;100.00;95759.31;4952926;28;20286;-66
2022/06/23 00:33:53;;;;;;;15.27;12.80;;;20.60;87.20;;;19.34;100.00;95756.88;4957759;28;20113;-67
2022/06/23 00:36:38;;;;;;;17.38;12.48;;;20.60;87.10;;;19.34;100.00;95767.56;4925041;28;20440;-67
2022/06/23 00:39:36;;;;;;;17.65;13.27;;;20.60;87.00;;;19.34;100.00;95764.88;4954981;28;20131;-66
2022/06/23 00:42:21;;;;;;;16.05;12.23;;;20.60;86.90;;;19.32;100.00;95761.66;4941266;28;20098;-66
2022/06/23 00:45:15;;;;;;;18.77;13.43;;;20.60;86.90;;;19.32;100.00;95764.34;4945875;28;20041;-67
2022/06/23 00:47:54;;;;;;;14.20;11.68;;;20.50;86.90;;;19.31;100.00;95761.94;4946509;28;20055;-67
2022/06/23 00:50:44;;;;;;;16.30;12.13;;;20.60;87.20;;;19.30;100.00;95761.13;4959539;28;20140;-67
2022/06/23 00:53:13;;;;;;;14.55;12.45;;;20.60;87.00;;;19.28;100.00;95760.56;4942931;28;20063;-67
2022/06/23 00:56:03;;;;;;;16.60;12.63;;;20.60;86.70;;;19.27;100.00;95754.44;4956486;28;20193;-66
2022/06/23 00:59:00;;;;;;;17.95;12.27;;;20.50;87.00;;;19.23;100.00;95749.81;4956410;28;20039;-66
2022/06/23 01:01:51;;;;;;;14.80;11.88;;;20.40;87.30;;;19.21;100.00;95751.94;4949058;28;20101;-66
2022/06/23 01:04:35;;;;;;;18.05;12.30;;;20.40;87.30;;;19.19;100.00;95754.06;4939531;28;20043;-67
2022/06/23 01:07:35;;;;;;;18.67;12.40;;;20.40;87.00;;;19.20;100.00;95758.34;4969483;28;20040;-66
2022/06/23 01:10:20;;;;;;;22.15;11.82;;;20.40;87.00;;;19.16;100.00;95760.72;4945655;28;20038;-66
2022/06/23 01:12:50;;;;;;;16.25;11.38;;;20.30;86.90;;;19.15;100.00;95758.28;4955798;28;20039;-67
2022/06/23 01:15:45;;;;;;;17.08;11.50;;;20.40;86.90;;;19.14;100.00;95762.81;4955414;28;20358;-66
2022/06/23 01:18:13;;;;;;;19.98;12.18;;;20.40;86.70;;;19.11;100.00;95771.31;4928697;28;20570;-66
2022/06/23 01:20:55;;;;;;;13.65;11.07;;;20.30;86.70;;;19.11;100.00;95759.84;4956395;28;20053;-67
2022/06/23 01:23:45;;;;;;;21.35;12.20;;;20.30;86.80;;;19.09;100.00;95764.63;4940150;28;20039;-67
2022/06/23 01:26:55;;;;;;;17.02;11.98;;;20.30;86.70;;;19.05;100.00;95758.19;4960903;28;20047;-66
2022/06/23 01:29:41;;;;;;;17.25;11.90;;;20.30;86.90;;;19.05;100.00;95766.19;4936346;28;20039;-67
2022/06/23 01:32:22;;;;;;;12.88;11.05;;;20.30;86.80;;;19.02;100.00;95766.69;4961730;28;20113;-67
2022/06/23 01:35:07;;;;;;;20.05;11.25;;;20.30;86.70;;;19.02;100.00;95758.69;4947602;28;20069;-67
2022/06/23 01:38:13;;;;;;;17.60;12.23;;;20.30;86.60;;;18.97;100.00;95767.41;4959980;28;20047;-66
2022/06/23 01:40:56;;;;;;;18.85;11.98;;;20.20;86.80;;;18.96;100.00;95777.28;4937347;28;20898;-67
2022/06/23 01:43:31;;;;;;;16.25;11.77;;;20.10;86.90;;;18.95;100.00;95781.00;4930364;28;20037;-66
2022/06/23 01:46:02;;;;;;;20.70;12.00;;;20.20;87.00;;;18.92;100.00;95776.16;4948000;28;20122;-66
2022/06/23 01:49:17;;;;;;;18.33;11.75;;;20.10;87.00;;;18.93;100.00;95787.63;4956361;28;20026;-66
2022/06/23 01:51:53;;;;;;;20.35;12.93;;;20.10;87.00;;;18.90;100.00;95778.28;4959723;28;20031;-66
2022/06/23 01:54:24;;;;;;;18.45;12.48;;;20.10;87.20;;;18.88;100.00;95775.06;4957080;28;20045;-66
2022/06/23 01:57:04;;;;;;;18.85;12.18;;;20.10;87.00;;;18.87;100.00;95784.13;4960567;28;20045;-66
2022/06/23 01:59:55;;;;;;;18.67;12.48;;;20.10;86.80;;;18.87;100.00;95788.63;4959389;28;20039;-68
2022/06/23 02:03:07;;;;;;;20.90;12.15;;;20.10;86.90;;;18.87;100.00;95794.78;4962459;28;20046;-66
2022/06/23 02:05:42;;;;;;;16.13;11.45;;;20.10;87.00;;;18.85;100.00;95796.88;4964347;28;20151;-66
2022/06/23 02:08:31;;;;;;;15.73;11.20;;;20.10;87.10;;;18.87;100.00;95789.44;4934743;28;20039;-66
2022/06/23 02:11:14;;;;;;;19.35;12.55;;;20.10;87.10;;;18.86;100.00;95787.03;4977391;28;20059;-66
2022/06/23 02:14:25;;;;;;;19.95;12.20;;;20.10;87.20;;;18.84;100.00;95792.59;4937017;28;20045;-66
2022/06/23 02:17:00;;;;;;;16.77;12.20;;;20.10;87.10;;;18.82;100.00;95791.25;4949614;28;20035;-66
2022/06/23 02:19:40;;;;;;;20.83;13.32;;;20.00;87.30;;;18.82;100.00;95794.72;4959488;28;20520;-66
2022/06/23 02:22:38;;;;;;;22.08;12.13;;;20.10;87.30;;;18.84;100.00;95802.47;4925314;28;20051;-66
2022/06/23 02:25:27;;;;;;;21.90;12.55;;;20.10;87.20;;;18.83;100.00;95796.31;4946478;28;20031;-66
2022/06/23 02:27:54;;;;;;;19.48;12.38;;;20.10;87.30;;;18.84;100.00;95800.59;4945022;28;20502;-66
2022/06/23 02:30:32;;;;;;;18.77;12.52;;;20.10;87.50;;;18.85;100.00;95799.56;4957748;28;20035;-66
2022/06/23 02:33:05;;;;;;;19.73;12.57;;;20.10;87.40;;;18.86;100.00;95803.00;4976054;28;20065;-66
2022/06/23 02:35:48;;;;;;;20.42;12.07;;;20.10;87.50;;;18.86;100.00;95803.00;4962601;28;20056;-66
2022/06/23 02:38:33;;;;;;;18.50;12.73;;;20.10;87.40;;;18.88;100.00;95806.25;4960102;28;20030;-67
2022/06/23 02:41:02;;;;;;;22.88;13.35;;;20.10;87.40;;;18.87;100.00;95805.44;4929771;28;20420;-66
2022/06/23 02:43:37;;;;;;;17.00;12.43;;;20.10;87.30;;;18.89;100.00;95813.19;4958425;28;20452;-66
2022/06/23 02:46:44;;;;;;;18.48;12.30;;;20.10;87.10;;;18.90;100.00;95807.59;4963550;28;20046;-66
2022/06/23 02:49:31;;;;;;;14.40;11.43;;;20.20;87.10;;;18.89;100.00;95821.97;4955161;28;20158;-66
2022/06/23 02:52:15;;;;;;;22.83;12.93;;;20.20;87.10;;;18.88;100.00;95828.38;4943207;28;20366;-66
2022/06/23 02:55:21;;;;;;;21.13;13.63;;;20.10;87.10;;;18.87;100.00;95825.94;4952303;28;20040;-66
2022/06/23 02:58:12;;;;;;;19.08;13.60;;;20.10;87.10;;;18.84;100.00;95821.91;4958382;28;20386;-66
2022/06/23 03:00:44;;;;;;;19.33;14.02;;;20.10;87.30;;;18.83;100.00;95833.63;4943084;28;20413;-66
2022/06/23 03:03:39;;;;;;;26.15;14.25;;;20.10;87.40;;;18.85;100.00;95842.19;4961920;28;20404;-66
2022/06/23 03:06:31;;;;;;;21.50;13.73;;;20.10;87.40;;;18.84;100.00;95829.13;4956278;28;20094;-66
2022/06/23 03:09:13;;;;;;;20.63;14.93;;;20.20;87.30;;;18.84;100.00;95831.78;4958849;28;20150;-66
2022/06/23 03:12:08;;;;;;;17.58;14.10;;;20.10;87.50;;;18.85;100.00;95831.53;4928425;28;20594;-66
2022/06/23 03:14:53;;;;;;;20.98;15.27;;;20.10;87.50;;;18.86;100.00;95835.81;4949268;28;20078;-66
2022/06/23 03:17:42;;;;;;;18.65;14.55;;;20.10;87.60;;;18.86;100.00;95835.81;4952779;28;20050;-66
2022/06/23 03:20:33;;;;;;;17.58;14.02;;;20.10;87.50;;;18.87;100.00;95831.28;4946250;28;20038;-66
2022/06/23 03:23:26;;;;;;;19.02;14.90;;;20.20;87.50;;;18.87;100.00;95837.41;4959446;28;20046;-66
2022/06/23 03:26:46;;;;;;;25.20;15.25;;;20.20;87.50;;;18.88;100.00;95835.56;4946062;28;20404;-66
2022/06/23 03:29:17;;;;;;;25.42;17.33;;;20.10;87.50;;;18.86;100.00;95835.00;4964276;28;20069;-66
2022/06/23 03:32:01;;;;;;;22.42;16.48;;;20.10;87.60;;;18.86;100.00;95841.13;4961590;28;20082;-67
2022/06/23 03:34:35;;;;;;;23.55;17.00;;;20.10;87.50;;;18.83;100.00;95844.28;4947630;28;20035;-66
2022/06/23 03:37:47;;;;;;;24.50;17.08;;;20.10;87.60;;;18.83;100.00;95836.31;4959692;28;20043;-66
2022/06/23 03:43:31;;;;;;;19.30;15.40;;;20.10;87.40;;;18.80;100.00;95836.81;4960952;28;20045;-67
2022/06/23 03:46:06;;;;;;;23.75;14.65;;;20.10;87.60;;;18.80;100.00;95842.13;4955738;28;20043;-67
2022/06/23 03:49:05;;;;;;;20.65;14.85;;;20.10;87.40;;;18.80;100.00;95836.00;4945918;28;20608;-66
2022/06/23 03:51:34;;;;;;;19.13;14.55;;;20.10;87.40;;;18.77;100.00;95839.94;4957061;28;20027;-66
2022/06/23 03:54:14;;;;;;;19.13;14.43;;;20.10;87.40;;;18.75;100.00;95849.22;4946323;28;20047;-65
2022/06/23 03:57:03;;;;;;;19.60;13.60;;;20.00;87.50;;;18.74;100.00;95848.41;4942403;28;20054;-68
2022/06/23 03:59:32;;;;;;;21.13;14.35;;;20.00;87.30;;;18.72;100.00;95849.72;4920983;28;20046;-66
2022/06/23 04:02:23;;;;;;;19.52;13.38;;;20.00;87.30;;;18.73;100.00;95852.13;4958511;28;20038;-65
2022/06/23 04:05:16;;;;;;;22.63;14.00;;;20.00;87.10;;;18.72;100.00;95853.19;4961945;28;20276;-66
2022/06/23 04:07:52;;;;;;;20.92;13.48;;;20.10;87.00;;;18.72;100.00;95850.53;4976843;28;20105;-66
2022/06/23 04:10:40;;;;;;;20.40;13.65;;;20.10;86.90;;;18.73;100.00;95846.00;4950536;28;20386;-66
2022/06/23 04:13:31;;;;;;;20.67;12.15;;;20.10;86.90;;;18.74;100.00;95853.75;4940901;28;20031;-66
2022/06/23 04:16:08;;;;;;;20.70;12.60;;;20.10;86.80;;;18.74;100.00;95851.09;4955707;28;20134;-66
2022/06/23 04:18:38;;;;;;;21.35;12.35;;;20.10;86.60;;;18.72;100.00;95839.88;4948357;28;20102;-66
2022/06/23 04:21:09;;;;;;;18.45;12.05;;;20.10;86.70;;;18.74;100.00;95845.75;4950220;28;20136;-66
2022/06/23 04:23:40;;;;;;;19.05;12.00;;;20.10;86.90;;;18.76;100.00;95840.19;4960122;28;20778;-67
2022/06/23 04:26:36;;;;;;;23.55;13.32;;;20.10;86.90;;;18.77;100.00;95853.25;4948381;28;20046;-66
2022/06/23 04:29:09;;;;;;;19.10;12.70;;;20.10;86.90;;;18.79;100.00;95861.84;4930724;28;20039;-67
2022/06/23 04:32:02;;;;;;;17.63;11.25;;;20.20;86.80;;;18.78;100.00;95865.53;4930468;28;20137;-66
2022/06/23 04:34:36;;;;;;;16.48;11.48;;;20.20;86.70;;;18.81;100.00;95865.06;4962621;28;20046;-65
2022/06/23 04:37:02;;;;;;;18.67;12.25;;;20.20;86.50;;;18.82;100.00;95869.34;4965751;28;20038;-66
2022/06/23 04:39:40;;;;;;;17.67;11.90;;;20.20;86.50;;;18.83;100.00;95865.63;4962849;28;20436;-66
2022/06/23 04:42:24;;;;;;;23.65;11.70;;;20.20;86.20;;;18.85;100.00;95865.38;4932712;28;20054;-64
2022/06/23 04:44:55;;;;;;;20.30;11.38;;;20.20;86.10;;;18.83;100.00;95868.28;4948139;28;20053;-66
2022/06/23 04:47:25;;;;;;;17.85;10.70;;;20.20;86.00;;;18.82;100.00;95871.19;4932632;28;20130;-65
2022/06/23 04:50:02;;;;;;;15.32;10.73;;;20.20;86.00;;;18.82;100.00;95866.66;4964016;28;20035;-66
2022/06/23 04:52:37;;;;;;;16.52;11.02;;;20.20;85.80;;;18.82;100.00;95874.66;4933711;28;20035;-65
2022/06/23 04:55:17;;;;;;;16.70;10.60;;;20.20;85.50;;;18.81;100.00;95881.06;4949249;28;20416;-66
2022/06/23 04:58:11;;;;;;;15.65;10.57;;;20.10;85.60;;;18.82;100.00;95880.00;4925282;28;20035;-66
2022/06/23 05:00:46;;;;;;;15.95;10.20;;;20.10;85.60;;;18.82;100.00;95877.31;4962189;28;20077;-65
2022/06/23 05:03:22;;;;;;;18.90;9.75;;;20.20;85.70;;;18.83;100.00;95881.59;4935518;28;20109;-66
2022/06/23 05:06:02;;;;;;;16.27;9.88;;;20.30;85.70;;;18.85;100.00;95884.03;4963860;28;20700;-65
2022/06/23 05:08:31;;;;;;;15.35;10.38;;;20.30;85.80;;;18.86;100.00;95886.44;4933933;28;20046;-67
2022/06/23 05:11:53;;;;;;;16.40;9.63;;;20.30;85.90;;;18.87;100.00;95885.38;4933234;28;20174;-65
2022/06/23 05:14:42;;;;;;;15.43;9.85;;;20.30;85.30;;;18.88;100.00;95887.00;4963481;28;20035;-65
2022/06/23 05:17:12;;;;;;;16.88;9.77;;;20.30;85.00;;;18.90;100.00;95884.09;4937103;28;20085;-65
2022/06/23 05:19:39;;;;;;;15.70;8.80;;;20.40;84.60;;;18.92;100.00;95879.31;4957978;28;20638;-67
2022/06/23 05:22:30;;;;;;;15.65;8.73;;;20.40;83.90;;;18.97;100.00;95880.19;4947943;28;20041;-66
2022/06/23 05:24:57;;;;;;;13.05;7.80;;;20.50;84.30;;;18.98;100.00;95876.47;4947613;28;20118;-66
2022/06/23 05:27:29;;;;;;;12.75;7.68;;;20.60;83.90;;;19.05;100.00;95881.63;4960246;28;20071;-66
2022/06/23 05:30:25;;;;;;;15.55;7.75;;;20.60;83.90;;;19.12;100.00;95886.78;4928546;28;20057;-66
2022/06/23 05:33:01;;;;;;;14.60;7.18;;;20.60;83.60;;;19.16;100.00;95882.56;4958870;28;20078;-67
2022/06/23 05:35:42;;;;;;;10.23;6.43;;;20.70;83.10;;;19.22;100.00;95885.03;4927410;28;20465;-67
2022/06/23 05:38:35;;;;;;;11.63;6.20;;;20.70;82.10;;;19.30;100.00;95889.13;4933386;28;20448;-66
2022/06/23 05:41:22;;;;;;;11.82;5.80;;;20.90;81.80;;;19.36;100.00;95888.13;4965486;28;20046;-66
2022/06/23 05:43:48;;;;;;;10.57;5.90;;;21.00;81.20;;;19.46;100.00;95898.94;4946404;28;20027;-66
2022/06/23 05:46:20;;;;;;;13.43;5.55;;;21.10;80.40;;;19.54;100.00;95893.16;4927696;28;20074;-66
2022/06/23 05:49:15;;;;;;;12.32;5.45;;;21.30;79.30;;;19.66;100.00;95892.22;4961848;28;20030;-66
2022/06/23 05:51:54;;;;;;;10.73;5.75;;;21.40;79.50;;;19.74;100.00;95881.09;4931588;28;20166;-67
2022/06/23 05:54:47;;;;;;;9.35;5.57;;;21.60;79.60;;;19.85;100.00;95880.13;4942560;28;20127;-65
2022/06/23 05:57:22;;;;;;;9.45;4.95;;;21.60;80.20;;;19.95;100.00;95882.91;4958431;28;20047;-66
2022/06/23 05:59:59;;;;;;;11.35;5.10;;;21.70;79.70;;;20.03;100.00;95881.63;4963513;28;20050;-66
2022/06/23 06:02:48;;;;;;;12.07;5.50;;;21.80;79.70;;;20.10;100.00;95883.03;4962082;28;20456;-66
2022/06/23 06:05:54;;;;;;;7.72;4.82;;;21.80;78.40;;;20.25;100.00;95886.91;4942489;28;20441;-66
2022/06/23 06:08:34;;;;;;;12.05;4.60;;;22.10;76.20;;;20.37;100.00;95887.53;4960390;28;20524;-66
2022/06/23 06:11:01;;;;;;;15.30;4.07;;;22.30;75.40;;;20.52;100.00;95886.88;4924344;28;20535;-65
2022/06/23 06:13:31;;;;;;;8.65;4.53;;;22.50;76.20;;;20.65;100.00;95891.78;4939160;28;20093;-65
2022/06/23 06:15:58;;;;;;;9.35;4.57;;;22.60;74.00;;;20.78;100.00;95884.09;4946606;28;20043;-66
2022/06/23 06:18:37;;;;;;;8.82;3.63;;;22.80;74.10;;;20.97;100.00;95889.03;4941076;28;20035;-66
2022/06/23 06:21:05;;;;;;;13.32;3.90;;;23.00;74.60;;;21.14;100.00;95896.88;4964783;28;20073;-67
2022/06/23 06:23:52;;;;;;;9.27;4.32;;;23.10;73.20;;;21.28;100.00;95888.16;4931275;28;20046;-66
2022/06/23 06:26:20;;;;;;;9.43;3.85;;;23.40;72.10;;;21.45;100.00;95882.56;4956219;28;20035;-67
2022/06/23 06:28:46;;;;;;;7.28;3.70;;;23.60;70.90;;;21.61;99.57;95896.81;4964001;28;20030;-67
2022/06/23 06:31:27;;;;;;;10.32;3.53;;;23.80;71.30;;;21.75;98.48;95897.13;4950627;28;20082;-67
2022/06/23 06:34:04;;;;;;;7.25;3.30;;;24.00;70.40;;;21.87;94.51;95898.47;4964092;28;20047;-67
2022/06/23 06:36:50;;;;;;;11.57;3.17;;;24.10;68.40;;;21.98;89.83;95894.78;4959031;28;20050;-67
2022/06/23 06:39:33;;;;;;;6.40;3.05;;;24.30;65.70;;;22.10;90.85;95893.72;4950999;28;20078;-67
2022/06/23 06:42:08;;;;;;;7.95;2.92;;;24.60;66.10;;;22.17;89.65;95888.91;4947392;28;20134;-67
2022/06/23 06:44:36;;;;;;;5.85;3.50;;;24.70;64.20;;;22.29;90.95;95894.81;4951642;28;20129;-66
2022/06/23 06:47:02;;;;;;;9.48;3.30;;;24.90;63.70;;;22.40;90.81;95888.38;4951347;28;20407;-66
2022/06/23 06:49:32;;;;;;;8.57;2.88;;;24.90;64.30;;;22.53;90.40;95893.19;4949225;28;20041;-66
2022/06/23 06:51:57;;;;;;;6.15;2.42;;;25.10;64.50;;;22.64;88.25;95885.97;4940856;28;20507;-66
2022/06/23 06:55:21;;;;;;;8.48;2.70;;;25.10;61.90;;;22.82;81.93;95900.69;4950236;28;20101;-66
2022/06/23 06:58:12;;;;;;;6.25;2.60;;;25.40;60.60;;;22.94;81.35;95898.53;4944865;28;20489;-67
2022/06/23 07:01:01;;;;;;;6.75;2.40;;;25.40;59.70;;;23.02;82.60;95900.66;4945207;28;20050;-67
2022/06/23 07:03:27;;;;;;;5.93;2.47;;;25.60;59.60;;;23.18;84.76;95899.53;4961960;28;20090;-67
2022/06/23 07:05:59;;;;;;;7.55;2.20;;;26.00;60.20;;;23.33;83.43;95912.13;4948002;28;20437;-67
2022/06/23 07:11:34;;;;;;;7.75;2.42;;;26.30;58.40;;;23.60;79.95;95905.59;5008144;23;20034;-63
2022/06/23 07:14:23;;;;;;;6.13;2.65;;;26.50;58.40;;;23.72;82.00;95914.91;5008465;28;20433;-64
2022/06/23 07:17:04;;;;;;;7.43;2.85;;;26.80;57.60;;;23.87;78.51;95913.22;4989727;28;20034;-64
2022/06/23 07:19:40;;;;;;;7.20;2.60;;;26.90;56.90;;;24.00;79.78;95907.25;4973890;28;20045;-66
2022/06/23 07:22:30;;;;;;;6.13;2.22;;;27.10;57.40;;;24.16;79.33;95908.75;5007169;28;20041;-65
2022/06/23 07:25:15;;;;;;;8.23;2.72;;;27.20;57.90;;;24.31;78.12;95903.28;4989663;28;20034;-66
2022/06/23 07:27:48;;;;;;;5.95;2.20;;;27.30;57.00;;;24.45;78.12;95902.66;4998585;28;20604;-66
2022/06/23 07:30:27;;;;;;;9.52;2.58;;;27.50;56.10;;;24.60;78.13;95897.13;5006897;28;20523;-66
2022/06/23 07:33:14;;;;;;;8.20;2.73;;;27.70;56.70;;;24.72;78.34;95890.31;5004369;28;20026;-66
2022/06/23 07:35:48;;;;;;;8.68;2.70;;;27.80;54.30;;;24.88;78.00;95890.94;5002902;28;20056;-66
2022/06/23 07:38:25;;;;;;;10.15;2.50;;;28.10;55.90;;;25.03;79.07;95896.22;5004277;28;20034;-66
2022/06/23 07:41:02;;;;;;;6.85;2.47;;;28.30;54.70;;;25.22;73.83;95895.47;5007556;28;20033;-66
2022/06/23 07:43:37;;;;;;;7.28;2.10;;;28.50;51.90;;;25.29;70.89;95883.25;5003439;28;20034;-66
2022/06/23 07:46:03;;;;;;;6.57;2.05;;;28.30;50.10;;;25.34;73.59;95890.47;4976609;28;20117;-66
2022/06/23 07:48:32;;;;;;;6.97;1.95;;;28.40;51.00;;;25.39;71.76;95895.03;4988768;28;20058;-67
2022/06/23 07:50:58;;;;;;;4.90;2.13;;;28.60;51.20;;;25.47;73.12;95892.47;5007283;28;20026;-66
2022/06/23 07:53:39;;;;;;;9.77;2.33;;;28.70;50.70;;;25.57;68.54;95892.38;5007234;28;20061;-66
2022/06/23 07:56:05;;;;;;;5.43;1.55;;;28.80;50.00;;;25.63;71.12;95891.19;5008426;28;20061;-66
2022/06/23 07:58:34;;;;;;;6.50;1.98;;;28.80;48.40;;;25.64;69.63;95884.72;5000139;28;20489;-65
2022/06/23 08:01:06;;;;;;;5.38;1.70;;;28.80;49.30;;;25.78;68.58;95878.63;5004839;28;20069;-65
2022/06/23 08:04:12;;;;;;;5.93;2.10;;;29.00;49.40;;;25.90;65.25;95879.81;4985132;28;20058;-66
2022/06/23 08:06:37;;;;;;;13.25;1.92;;;29.10;47.70;;;26.07;68.85;95883.91;5005597;28;20037;-66
2022/06/23 08:09:15;;;;;;;4.88;1.70;;;29.50;47.50;;;26.27;65.00;95877.41;4971548;28;20449;-64
2022/06/23 08:14:33;;;;;;;6.03;1.73;;;29.70;47.10;;;26.46;64.64;95870.88;4996078;28;20732;-66
2022/06/23 08:17:01;;;;;;;5.53;1.48;;;29.90;46.50;;;26.61;66.21;95869.81;5005279;28;20076;-64
2022/06/23 08:19:40;;;;;;;8.30;1.80;;;30.10;46.60;;;26.78;64.25;95863.88;5004545;28;20121;-66
2022/06/23 08:22:19;;;;;;;6.65;1.75;;;30.30;45.60;;;26.96;61.31;95863.00;5007459;28;20088;-65
2022/06/23 08:24:48;;;;;;;8.60;1.80;;;30.60;44.50;;;27.07;65.40;95863.63;4987819;28;20026;-67
2022/06/23 08:27:18;;;;;;;6.82;2.05;;;30.60;46.40;;;27.21;64.66;95866.34;4967402;28;20156;-67
2022/06/23 08:29:45;;;;;;;5.03;1.60;;;30.80;44.40;;;27.34;64.98;95862.81;4985520;28;20027;-66
2022/06/23 08:32:11;;;;;;;5.70;2.03;;;31.10;47.00;;;27.53;64.20;95857.31;5002431;28;20038;-66
2022/06/23 08:34:38;;;;;;;5.22;1.60;;;31.20;44.50;;;27.65;63.27;95860.31;4987318;28;20046;-66
2022/06/23 08:37:24;;;;;;;4.05;1.65;;;31.30;43.00;;;27.77;56.94;95847.06;4969360;28;20074;-61
2022/06/23 08:39:58;;;;;;;4.88;1.60;;;31.50;41.40;;;27.96;60.32;95858.53;5018181;28;20038;-61
2022/06/23 08:42:43;;;;;;;5.28;1.73;;;31.90;43.40;;;28.22;60.46;95845.22;4990032;28;20532;-66
2022/06/23 08:45:42;;;;;;;6.70;2.20;;;32.10;43.80;;;28.48;58.84;95845.41;4992803;28;20065;-66
2022/06/23 08:48:39;;;;;;;14.00;2.28;;;32.30;42.30;;;28.77;59.04;95841.44;4989464;28;20053;-66
2022/06/23 08:51:25;;;;;;;6.78;1.80;;;32.60;42.60;;;29.06;55.92;95839.06;5001571;28;20045;-68
2022/06/23 08:54:18;;;;;;;6.82;1.80;;;32.80;40.50;;;29.37;54.90;95838.97;4970638;28;20061;-68
2022/06/23 08:56:54;;;;;;;6.07;1.92;;;33.00;40.00;;;29.70;57.82;95846.75;5006774;28;20108;-69
2022/06/23 08:59:40;;;;;;;6.07;1.67;;;33.30;40.40;;;29.98;53.90;95841.81;5003741;28;20117;-71
2022/06/23 09:02:28;;;;;;;6.47;2.10;;;33.30;40.70;;;30.21;53.33;95835.13;5001034;28;20124;-68
2022/06/23 09:05:24;;;;;;;8.27;2.08;;;33.40;41.10;;;30.43;51.23;95832.22;5001780;28;20038;-64
2022/06/23 09:08:22;;;;;;;8.57;2.30;;;33.50;39.10;;;30.60;53.07;95836.03;5005178;28;20026;-65
2022/06/23 09:10:58;;;;;;;6.32;2.40;;;33.50;40.90;;;30.74;51.53;95826.59;5004721;28;20037;-67
2022/06/23 09:13:50;;;;;;;7.90;2.55;;;33.70;39.10;;;30.83;51.03;95823.84;5004030;28;20049;-66
2022/06/23 09:16:57;;;;;;;5.35;2.15;;;33.60;40.70;;;30.96;50.86;95822.84;4986277;28;20133;-65
2022/06/23 09:19:46;;;;;;;7.78;3.00;;;33.80;40.00;;;31.14;53.16;95825.47;4999564;28;20041;-66
2022/06/23 09:22:24;;;;;;;7.00;2.63;;;34.20;41.60;;;31.36;50.59;95825.22;5004847;28;20402;-65
2022/06/23 09:25:17;;;;;;;6.93;2.00;;;34.40;39.80;;;31.57;48.14;95823.34;5000797;28;20034;-65
2022/06/23 09:28:13;;;;;;;5.45;1.80;;;34.70;37.60;;;31.73;48.56;95817.38;5002837;28;20030;-64
2022/06/23 09:30:51;;;;;;;6.68;1.80;;;34.70;38.70;;;31.94;50.55;95810.78;5004031;28;20122;-64
2022/06/23 09:33:48;;;;;;;7.68;1.92;;;35.10;36.90;;;32.23;47.91;95809.09;5002527;28;20485;-65
2022/06/23 09:36:47;;;;;;;6.22;2.00;;;35.40;37.90;;;32.42;46.69;95795.03;5004676;28;20117;-65
2022/06/23 09:39:44;;;;;;;7.13;2.10;;;35.60;36.50;;;32.65;47.14;95792.69;4974913;28;20026;-65
2022/06/23 09:42:33;;;;;;;7.78;2.17;;;35.90;37.70;;;32.76;48.11;95794.63;4988427;28;20370;-65
2022/06/23 09:45:46;;;;;;;6.13;1.88;;;36.00;37.10;;;33.05;46.35;95784.72;5006316;28;20038;-65
2022/06/23 09:48:48;;;;;;;8.48;2.00;;;36.50;36.70;;;33.28;46.28;95785.84;5016949;28;20031;-66
2022/06/23 09:51:52;;;;;;;4.90;1.70;;;36.70;36.30;;;33.55;44.58;95786.28;5002206;28;20077;-66
2022/06/23 09:54:34;;;;;;;6.25;2.60;;;37.00;34.70;;;33.70;42.34;95777.34;5005443;28;20034;-65
2022/06/23 09:57:25;;;;;;;10.65;2.50;;;36.90;32.50;;;33.87;44.30;95776.31;5009316;28;20076;-64
2022/06/23 10:00:20;;;;;;;7.63;2.67;;;37.50;35.20;;;34.05;43.50;95783.09;5006013;28;20037;-65
2022/06/23 10:03:17;;;;;;;10.40;2.90;;;37.70;33.60;;;34.35;44.40;95772.63;4995711;28;20059;-65
2022/06/23 10:06:22;;;;;;;5.70;2.15;;;38.50;33.90;;;34.74;42.20;95776.38;4999790;28;20049;-71
2022/06/23 10:09:50;;;;;;;7.35;2.50;;;38.80;32.80;;;35.15;40.37;95777.81;5005155;28;20124;-69
2022/06/23 10:12:57;;;;;;;7.40;2.40;;;39.20;30.40;;;35.49;40.07;95775.47;4997251;28;20030;-68
2022/06/23 10:16:02;;;;;;;7.38;2.30;;;39.30;30.20;;;35.75;39.54;95775.66;5006648;28;20060;-66
2022/06/23 10:19:04;;;;;;;8.15;2.40;;;39.50;30.10;;;35.96;39.00;95764.38;5004187;28;20038;-67
2022/06/23 10:22:17;;;;;;;10.65;2.10;;;39.60;30.70;;;36.32;37.74;95771.38;5007778;28;20049;-65
2022/06/23 10:25:21;;;;;;;8.73;2.50;;;40.10;29.60;;;36.68;37.58;95752.84;4980447;28;20064;-66
2022/06/23 10:28:26;;;;;;;7.40;2.00;;;40.30;29.20;;;37.09;36.13;95751.19;4996109;28;20034;-67
2022/06/23 10:31:23;;;;;;;7.15;2.22;;;40.90;28.10;;;37.38;35.67;95749.69;5001187;28;21873;-65
2022/06/23 10:34:12;;;;;;;6.35;2.53;;;41.10;27.30;;;37.72;37.60;95760.75;5005212;28;20125;-68
2022/06/23 10:37:04;;;;;;;8.18;2.50;;;41.50;29.30;;;38.15;36.58;95754.63;4993430;28;20093;-66
2022/06/23 10:39:38;;;;;;;8.77;2.13;;;41.80;28.90;;;38.36;34.23;95748.59;5000237;28;20068;-66
2022/06/23 10:42:26;;;;;;;10.07;2.15;;;42.00;26.30;;;38.62;33.62;95744.91;5006396;28;20038;-64
2022/06/23 10:45:35;;;;;;;8.15;2.10;;;42.30;26.60;;;38.88;33.76;95741.25;5005311;28;20049;-66
2022/06/23 10:48:58;;;;;;;6.88;2.42;;;42.50;27.20;;;39.20;33.45;95736.81;5001591;28;20425;-68
2022/06/23 10:52:08;;;;;;;8.73;2.08;;;42.50;26.90;;;39.47;32.54;95736.59;5007039;28;20064;-66
2022/06/23 10:54:58;;;;;;;7.63;2.10;;;42.70;25.90;;;39.78;32.26;95735.19;4992785;28;20038;-67
2022/06/23 10:57:55;;;;;;;4.68;1.77;;;42.80;25.70;;;39.98;31.33;95725.47;4990598;28;20040;-70
2022/06/23 11:00:32;;;;;;;6.00;1.60;;;42.80;25.70;;;40.20;30.77;95726.31;5017203;28;20058;-67
2022/06/23 11:03:33;;;;;;;6.43;2.30;;;42.90;25.60;;;40.35;30.83;95732.66;4988762;28;20042;-68
2022/06/23 11:06:16;;;;;;;6.85;1.90;;;42.70;26.30;;;40.50;30.95;95717.72;4996099;28;20046;-64
2022/06/23 11:08:52;;;;;;;7.57;2.38;;;42.90;25.90;;;40.71;30.86;95712.22;5001859;28;20049;-65
2022/06/23 11:11:53;;;;;;;6.88;1.98;;;43.00;26.50;;;40.82;29.04;95723.31;5003727;28;20220;-66
2022/06/23 11:14:56;;;;;;;7.70;1.95;;;42.80;25.00;;;40.94;28.81;95706.34;5006384;28;20046;-65
2022/06/23 11:17:45;;;;;;;8.27;2.25;;;43.00;25.00;;;41.16;29.55;95709.88;5008684;28;20517;-66
2022/06/23 11:20:38;;;;;;;5.65;1.80;;;43.30;25.30;;;41.16;30.15;95709.88;5008638;28;20037;-66
2022/06/23 11:23:18;;;;;;;6.93;2.10;;;43.20;26.00;;;41.27;28.15;95712.66;5007138;28;20474;-64
2022/06/23 11:26:35;;;;;;;6.45;2.15;;;43.30;24.30;;;41.33;28.10;95702.78;5003332;28;20054;-66
2022/06/23 11:29:36;;;;;;;10.52;2.53;;;43.40;24.30;;;41.49;29.43;95705.09;5021286;28;20611;-65